createdAt,value
2023-04-06T00:01:52.334Z,12.12
2023-04-06T00:04:18.720Z,11.89
2023-04-06T00:06:45.148Z,11.86
2023-04-06T00:09:11.532Z,11.11
2023-04-06T00:11:37.969Z,10.95
2023-04-06T00:14:04.282Z,11.55
2023-04-06T00:16:30.750Z,11.55
2023-04-06T00:18:57.152Z,11.53
2023-04-06T00:21:23.704Z,11.48
2023-04-06T00:23:50.225Z,11.34
2023-04-06T00:26:16.503Z,11.34
2023-04-06T00:28:42.820Z,11.33
2023-04-06T00:31:09.130Z,11.54
2023-04-06T00:33:35.407Z,11.63
2023-04-06T00:36:01.768Z,11.65
2023-04-06T00:38:28.110Z,11.57
2023-04-06T00:40:54.414Z,11.64
2023-04-06T00:43:20.861Z,11.39
2023-04-06T00:45:47.167Z,11.42
2023-04-06T00:48:14.225Z,11.54
2023-04-06T00:50:41.145Z,11.59
2023-04-06T00:53:07.538Z,11.51
2023-04-06T00:55:33.967Z,11.36
2023-04-06T00:58:02.135Z,11.47
2023-04-06T01:00:28.550Z,11.68
2023-04-06T01:02:55.275Z,11.62
2023-04-06T01:05:21.799Z,11.60
2023-04-06T01:07:48.207Z,11.59
2023-04-06T01:10:25.639Z,11.38
2023-04-06T01:12:52.077Z,11.32
2023-04-06T01:15:18.646Z,11.26
2023-04-06T01:17:45.755Z,11.25
2023-04-06T01:20:12.506Z,11.26
2023-04-06T01:22:38.963Z,11.17
2023-04-06T01:25:05.944Z,11.09
2023-04-06T01:27:32.677Z,10.85
2023-04-06T01:29:59.163Z,10.92
2023-04-06T01:32:25.924Z,10.77
2023-04-06T01:34:52.445Z,10.79
2023-04-06T01:37:19.225Z,10.82
2023-04-06T01:39:45.680Z,11.15
2023-04-06T01:42:12.124Z,10.99
2023-04-06T01:44:38.573Z,10.93
2023-04-06T01:47:04.985Z,10.96
2023-04-06T01:49:31.361Z,11.06
2023-04-06T01:51:57.739Z,11.12
2023-04-06T01:54:24.102Z,11.17
2023-04-06T01:56:52.463Z,11.41
2023-04-06T01:59:18.890Z,11.17
2023-04-06T02:01:46.291Z,11.40
2023-04-06T02:04:14.548Z,11.40
2023-04-06T02:06:41.221Z,11.21
2023-04-06T02:09:07.928Z,11.01
2023-04-06T02:11:34.528Z,11.17
2023-04-06T02:14:01.978Z,11.09
2023-04-06T02:16:28.403Z,11.03
2023-04-06T02:18:54.858Z,10.97
2023-04-06T02:21:21.449Z,10.86
2023-04-06T02:23:48.494Z,10.82
2023-04-06T02:26:15.003Z,10.49
2023-04-06T02:28:41.505Z,10.72
2023-04-06T02:31:09.356Z,10.59
2023-04-06T02:33:35.963Z,10.99
2023-04-06T02:36:02.371Z,10.90
2023-04-06T02:38:28.888Z,10.92
2023-04-06T02:40:55.333Z,10.91
2023-04-06T02:43:21.731Z,10.81
2023-04-06T02:45:48.159Z,10.86
2023-04-06T02:48:15.035Z,10.75
2023-04-06T02:50:41.424Z,10.50
2023-04-06T02:53:07.824Z,10.66
2023-04-06T02:55:34.256Z,10.54
2023-04-06T02:58:01.017Z,10.66
2023-04-06T03:00:27.485Z,10.45
2023-04-06T03:02:53.962Z,10.42
2023-04-06T03:05:20.595Z,10.48
2023-04-06T03:07:47.038Z,10.49
2023-04-06T03:10:13.458Z,10.40
2023-04-06T03:12:39.939Z,10.50
2023-04-06T03:15:06.792Z,10.48
2023-04-06T03:17:33.288Z,10.24
2023-04-06T03:19:59.741Z,10.41
2023-04-06T03:22:26.275Z,10.40
2023-04-06T03:24:52.684Z,10.36
2023-04-06T03:27:19.094Z,10.36
2023-04-06T03:29:45.566Z,10.15
2023-04-06T03:32:11.992Z,10.14
2023-04-06T03:34:39.367Z,10.12
2023-04-06T03:37:10.213Z,10.05
2023-04-06T03:39:37.215Z,10.01
2023-04-06T03:42:03.667Z,10.09
2023-04-06T03:44:30.043Z,10.18
2023-04-06T03:46:56.502Z,10.28
2023-04-06T03:49:23.015Z,10.24
2023-04-06T03:51:49.472Z,10.27
2023-04-06T03:54:15.889Z,10.06
2023-04-06T03:56:42.660Z,9.97
2023-04-06T03:59:09.299Z,9.97
2023-04-06T04:01:35.983Z,10.10
2023-04-06T04:04:02.462Z,10.02
2023-04-06T04:06:28.877Z,10.07
2023-04-06T04:08:55.347Z,10.03
2023-04-06T04:11:21.851Z,9.79
2023-04-06T04:13:48.292Z,9.97
2023-04-06T04:16:14.669Z,10.02
2023-04-06T04:18:41.152Z,9.81
2023-04-06T04:21:07.559Z,9.81
2023-04-06T04:23:35.905Z,9.79
2023-04-06T04:26:03.528Z,9.74
2023-04-06T04:28:30.333Z,9.73
2023-04-06T04:30:56.973Z,9.98
2023-04-06T04:33:23.705Z,9.96
2023-04-06T04:35:50.314Z,9.99
2023-04-06T04:38:17.007Z,9.96
2023-04-06T04:40:43.451Z,10.01
2023-04-06T04:43:09.914Z,10.09
2023-04-06T04:45:36.408Z,9.99
2023-04-06T04:48:03.003Z,10.11
2023-04-06T04:50:29.764Z,9.93
2023-04-06T04:52:56.210Z,9.82
2023-04-06T04:55:22.662Z,9.73
2023-04-06T04:57:49.114Z,9.53
2023-04-06T05:00:15.932Z,9.74
2023-04-06T05:02:42.400Z,9.93
2023-04-06T05:05:09.284Z,10.03
2023-04-06T05:07:35.851Z,10.14
2023-04-06T05:10:02.240Z,10.22
2023-04-06T05:12:28.607Z,10.30
2023-04-06T05:14:55.324Z,10.41
2023-04-06T05:17:21.905Z,10.25
2023-04-06T05:19:48.321Z,10.33
2023-04-06T05:22:17.094Z,10.54
2023-04-06T05:24:43.597Z,10.61
2023-04-06T05:27:10.734Z,10.68
2023-04-06T05:29:37.176Z,10.87
2023-04-06T05:32:03.590Z,10.93
2023-04-06T05:34:30.047Z,11.12
2023-04-06T05:36:56.440Z,11.04
2023-04-06T05:39:22.913Z,11.04
2023-04-06T05:41:50.055Z,10.97
2023-04-06T05:44:16.450Z,11.23
2023-04-06T05:46:42.895Z,11.40
2023-04-06T05:49:09.661Z,11.33
2023-04-06T05:51:36.331Z,11.46
2023-04-06T05:54:02.810Z,11.68
2023-04-06T05:56:31.091Z,11.66
2023-04-06T05:58:57.588Z,11.86
2023-04-06T06:01:24.080Z,11.92
2023-04-06T06:03:50.671Z,11.93
2023-04-06T06:06:17.050Z,11.73
2023-04-06T06:08:43.482Z,11.77
2023-04-06T06:11:09.885Z,11.85
2023-04-06T06:13:36.319Z,11.96
2023-04-06T06:16:06.127Z,12.18
2023-04-06T06:18:33.256Z,12.13
2023-04-06T06:20:59.794Z,12.01
2023-04-06T06:23:26.196Z,12.32
2023-04-06T06:25:52.632Z,12.47
2023-04-06T06:28:19.028Z,12.52
2023-04-06T06:30:45.501Z,12.69
2023-04-06T06:33:11.957Z,12.67
2023-04-06T06:35:38.390Z,12.51
2023-04-06T06:38:05.080Z,12.71
2023-04-06T06:40:31.518Z,13.03
2023-04-06T06:42:57.998Z,13.11
2023-04-06T06:45:26.358Z,13.25
2023-04-06T06:47:55.101Z,13.42
2023-04-06T06:50:22.157Z,13.66
2023-04-06T06:52:48.612Z,13.63
2023-04-06T06:55:16.197Z,13.20
2023-04-06T06:57:43.381Z,13.38
2023-04-06T07:00:12.917Z,13.50
2023-04-06T07:02:40.007Z,13.73
2023-04-06T07:05:23.952Z,13.39
2023-04-06T07:07:54.141Z,13.84
2023-04-06T07:10:21.327Z,14.20
2023-04-06T07:12:47.774Z,14.45
2023-04-06T07:15:14.315Z,14.80
2023-04-06T07:17:42.437Z,14.92
2023-04-06T07:20:09.532Z,14.96
2023-04-06T07:22:36.183Z,15.27
2023-04-06T07:25:02.627Z,15.47
2023-04-06T07:27:29.014Z,14.96
2023-04-06T07:29:55.418Z,14.21
2023-04-06T07:32:21.973Z,14.52
2023-04-06T07:34:48.477Z,15.15
2023-04-06T07:37:14.919Z,15.28
2023-04-06T07:39:41.694Z,15.24
2023-04-06T07:42:08.162Z,15.04
2023-04-06T07:44:34.549Z,15.75
2023-04-06T07:47:01.552Z,15.76
2023-04-06T07:49:28.005Z,15.84
2023-04-06T07:51:55.026Z,16.12
2023-04-06T07:54:21.767Z,15.94
2023-04-06T07:56:48.270Z,15.98
2023-04-06T07:59:14.823Z,16.02
2023-04-06T08:01:41.278Z,15.85
2023-04-06T08:04:07.968Z,16.19
2023-04-06T08:06:35.275Z,16.50
2023-04-06T08:09:01.796Z,16.13
2023-04-06T08:11:28.363Z,16.57
2023-04-06T08:13:56.630Z,16.59
2023-04-06T08:16:23.320Z,17.46
2023-04-06T08:18:49.782Z,17.66
2023-04-06T08:21:16.332Z,17.91
2023-04-06T08:23:42.718Z,17.08
2023-04-06T08:26:09.382Z,17.49
2023-04-06T08:28:36.076Z,17.72
2023-04-06T08:31:09.050Z,17.79
2023-04-06T08:33:40.138Z,17.90
2023-04-06T08:36:14.313Z,17.50
2023-04-06T08:38:41.472Z,17.58
2023-04-06T08:41:12.300Z,17.63
2023-04-06T08:43:49.632Z,16.58
2023-04-06T08:46:16.532Z,17.17
2023-04-06T08:48:43.930Z,16.82
2023-04-06T08:51:10.914Z,17.84
2023-04-06T08:53:37.941Z,18.47
2023-04-06T08:56:05.231Z,18.77
2023-04-06T08:58:38.275Z,18.63
2023-04-06T09:01:09.051Z,18.83
2023-04-06T09:03:43.148Z,19.45
2023-04-06T09:06:10.553Z,19.77
2023-04-06T09:08:39.846Z,19.89
2023-04-06T09:11:06.463Z,19.44
2023-04-06T09:13:33.195Z,20.14
2023-04-06T09:16:03.837Z,20.35
2023-04-06T09:18:31.928Z,20.40
2023-04-06T09:21:02.957Z,19.86
2023-04-06T09:23:29.526Z,20.02
2023-04-06T09:26:12.821Z,20.13
2023-04-06T09:28:47.679Z,20.21
2023-04-06T09:31:15.872Z,19.98
2023-04-06T09:33:43.644Z,20.35
2023-04-06T09:36:10.905Z,20.33
2023-04-06T09:38:39.138Z,20.78
2023-04-06T09:41:05.831Z,21.01
2023-04-06T09:43:32.275Z,21.06
2023-04-06T09:46:00.380Z,21.53
2023-04-06T09:48:29.263Z,21.08
2023-04-06T09:51:00.612Z,20.96
2023-04-06T09:53:27.904Z,21.54
2023-04-06T09:55:58.753Z,21.57
2023-04-06T09:58:27.506Z,21.34
2023-04-06T10:01:02.905Z,21.79
2023-04-06T10:03:53.707Z,21.87
2023-04-06T10:06:23.137Z,21.68
2023-04-06T10:08:51.120Z,21.56
2023-04-06T10:11:17.773Z,21.65
2023-04-06T10:13:45.717Z,21.66
2023-04-06T10:16:14.367Z,22.13
2023-04-06T10:18:45.189Z,22.42
2023-04-06T10:21:13.563Z,22.00
2023-04-06T10:24:01.309Z,21.83
2023-04-06T10:26:28.381Z,22.45
2023-04-06T10:28:55.690Z,22.00
2023-04-06T10:31:29.161Z,22.06
2023-04-06T10:33:56.588Z,22.06
2023-04-06T10:36:26.520Z,22.00
2023-04-06T10:39:05.049Z,22.82
2023-04-06T10:41:45.771Z,23.31
2023-04-06T10:44:25.467Z,23.30
2023-04-06T10:47:01.326Z,23.07
2023-04-06T10:49:27.949Z,22.69
2023-04-06T10:51:55.368Z,23.29
2023-04-06T10:54:25.931Z,23.02
2023-04-06T10:56:52.486Z,22.99
2023-04-06T10:59:23.116Z,22.86
2023-04-06T11:01:50.054Z,22.84
2023-04-06T11:04:18.788Z,22.18
2023-04-06T11:06:49.714Z,21.92
2023-04-06T11:09:27.043Z,22.14
2023-04-06T11:11:53.533Z,22.48
2023-04-06T11:14:20.312Z,22.63
2023-04-06T11:16:49.003Z,22.47
2023-04-06T11:19:15.550Z,23.03
2023-04-06T11:21:49.686Z,23.29
2023-04-06T11:24:18.063Z,23.86
2023-04-06T11:26:52.173Z,24.29
2023-04-06T11:29:21.030Z,23.36
2023-04-06T11:31:49.369Z,23.95
2023-04-06T11:34:20.906Z,24.01
2023-04-06T11:36:49.218Z,22.82
2023-04-06T11:39:21.138Z,23.77
2023-04-06T11:42:09.546Z,24.37
2023-04-06T11:44:41.320Z,24.56
2023-04-06T11:47:09.118Z,25.01
2023-04-06T11:49:38.592Z,25.21
2023-04-06T11:52:23.142Z,24.91
2023-04-06T11:54:50.790Z,24.40
2023-04-06T11:57:18.773Z,24.53
2023-04-06T11:59:45.702Z,24.57
2023-04-06T12:02:12.350Z,24.53
2023-04-06T12:04:38.998Z,24.79
2023-04-06T12:07:05.956Z,24.11
2023-04-06T12:09:32.784Z,24.31
2023-04-06T12:11:59.257Z,25.43
2023-04-06T12:14:25.976Z,25.55
2023-04-06T12:16:52.535Z,25.67
2023-04-06T12:19:19.104Z,25.25
2023-04-06T12:21:45.530Z,25.30
2023-04-06T12:24:11.941Z,25.02
2023-04-06T12:26:38.493Z,24.12
2023-04-06T12:29:08.399Z,24.76
2023-04-06T12:31:41.937Z,25.24
2023-04-06T12:34:08.688Z,24.87
2023-04-06T12:36:35.590Z,24.93
2023-04-06T12:39:02.361Z,25.00
2023-04-06T12:41:30.751Z,25.36
2023-04-06T12:43:57.265Z,24.78
2023-04-06T12:46:24.261Z,24.92
2023-04-06T12:48:54.499Z,25.51
2023-04-06T12:51:21.161Z,25.35
2023-04-06T12:53:47.722Z,24.87
2023-04-06T12:56:16.755Z,24.08
2023-04-06T12:58:43.353Z,24.85
2023-04-06T13:01:10.574Z,24.04
2023-04-06T13:03:37.212Z,24.07
2023-04-06T13:06:03.995Z,24.43
2023-04-06T13:08:30.549Z,24.88
2023-04-06T13:10:58.518Z,24.90
2023-04-06T13:13:26.654Z,24.80
2023-04-06T13:15:54.133Z,24.79
2023-04-06T13:18:20.993Z,25.49
2023-04-06T13:20:48.687Z,24.76
2023-04-06T13:23:15.634Z,24.14
2023-04-06T13:25:42.164Z,24.24
2023-04-06T13:28:09.578Z,25.07
2023-04-06T13:30:36.431Z,24.83
2023-04-06T13:33:03.501Z,25.01
2023-04-06T13:35:29.985Z,25.20
2023-04-06T13:37:56.470Z,25.19
2023-04-06T13:40:23.128Z,26.10
2023-04-06T13:42:49.528Z,25.43
2023-04-06T13:45:16.169Z,25.10
2023-04-06T13:47:42.629Z,24.25
2023-04-06T13:50:09.360Z,24.55
2023-04-06T13:52:37.049Z,25.09
2023-04-06T13:55:03.532Z,25.02
2023-04-06T13:57:30.976Z,25.17
2023-04-06T13:59:57.431Z,25.12
2023-04-06T14:02:28.239Z,25.39
2023-04-06T14:04:55.570Z,25.11
2023-04-06T14:07:22.863Z,25.65
2023-04-06T14:09:50.597Z,26.05
2023-04-06T14:12:17.014Z,25.58
2023-04-06T14:14:43.437Z,25.55
2023-04-06T14:17:09.981Z,25.67
2023-04-06T14:19:37.123Z,25.91
2023-04-06T14:22:03.586Z,25.45
2023-04-06T14:24:30.504Z,25.96
2023-04-06T14:26:57.687Z,25.77
2023-04-06T14:29:24.214Z,25.36
2023-04-06T14:31:50.602Z,25.20
2023-04-06T14:34:17.861Z,25.68
2023-04-06T14:36:44.309Z,25.45
2023-04-06T14:39:11.237Z,25.71
2023-04-06T14:41:37.822Z,25.75
2023-04-06T14:44:04.714Z,25.00
2023-04-06T14:46:31.446Z,24.45
2023-04-06T14:48:59.855Z,25.34
2023-04-06T14:51:28.385Z,25.51
2023-04-06T14:53:55.366Z,25.27
2023-04-06T14:56:23.155Z,25.36
2023-04-06T14:58:51.693Z,25.17
2023-04-06T15:01:21.001Z,25.49
2023-04-06T15:03:50.046Z,25.45
2023-04-06T15:06:18.623Z,25.03
2023-04-06T15:08:45.477Z,25.00
2023-04-06T15:11:13.041Z,25.39
2023-04-06T15:13:40.819Z,25.28
2023-04-06T15:16:07.664Z,25.44
2023-04-06T15:18:34.885Z,25.30
2023-04-06T15:21:01.359Z,24.87
2023-04-06T15:23:30.692Z,24.33
2023-04-06T15:26:00.259Z,23.97
2023-04-06T15:28:29.526Z,23.68
2023-04-06T15:30:56.690Z,23.85
2023-04-06T15:33:23.950Z,23.99
2023-04-06T15:35:53.222Z,24.27
2023-04-06T15:38:19.659Z,23.76
2023-04-06T15:40:46.543Z,23.59
2023-04-06T15:43:13.036Z,23.74
2023-04-06T15:45:39.475Z,23.68
2023-04-06T15:48:07.319Z,23.61
2023-04-06T15:50:34.406Z,23.79
2023-04-06T15:53:01.049Z,23.45
2023-04-06T15:55:27.464Z,23.35
2023-04-06T15:57:54.170Z,23.25
2023-04-06T16:00:21.245Z,23.31
2023-04-06T16:02:48.206Z,23.00
2023-04-06T16:05:14.879Z,23.51
2023-04-06T16:07:41.979Z,23.63
2023-04-06T16:10:09.179Z,23.52
2023-04-06T16:12:35.672Z,23.68
2023-04-06T16:15:02.094Z,23.68
2023-04-06T16:17:28.627Z,23.58
2023-04-06T16:19:55.108Z,23.28
2023-04-06T16:22:21.680Z,22.87
2023-04-06T16:24:48.076Z,22.70
2023-04-06T16:27:14.619Z,23.26
2023-04-06T16:29:41.081Z,23.29
2023-04-06T16:32:07.745Z,23.01
2023-04-06T16:34:34.438Z,23.26
2023-04-06T16:37:01.677Z,23.56
2023-04-06T16:39:28.473Z,23.15
2023-04-06T16:41:54.945Z,22.92
2023-04-06T16:44:21.619Z,22.75
2023-04-06T16:46:48.181Z,22.67
2023-04-06T16:49:14.805Z,22.25
2023-04-06T16:51:41.746Z,23.12
2023-04-06T16:54:08.771Z,23.09
2023-04-06T16:56:35.177Z,22.83
2023-04-06T16:59:01.615Z,22.63
2023-04-06T17:01:29.138Z,22.64
2023-04-06T17:03:56.657Z,22.60
2023-04-06T17:06:23.395Z,22.52
2023-04-06T17:08:51.412Z,22.75
2023-04-06T17:11:20.319Z,22.73
2023-04-06T17:13:50.720Z,22.28
2023-04-06T17:16:18.174Z,22.64
2023-04-06T17:18:44.722Z,22.57
2023-04-06T17:21:14.289Z,22.38
2023-04-06T17:23:41.518Z,22.45
2023-04-06T17:26:08.293Z,22.44
2023-04-06T17:28:34.722Z,22.24
2023-04-06T17:31:01.609Z,22.44
2023-04-06T17:33:28.413Z,22.43
2023-04-06T17:35:54.903Z,22.35
2023-04-06T17:38:21.456Z,22.13
2023-04-06T17:40:48.568Z,22.11
2023-04-06T17:43:14.990Z,21.83
2023-04-06T17:45:41.445Z,21.83
2023-04-06T17:48:08.029Z,21.48
2023-04-06T17:50:38.909Z,21.14
2023-04-06T17:53:05.629Z,20.89
2023-04-06T17:55:32.023Z,20.94
2023-04-06T17:57:58.506Z,21.04
2023-04-06T18:00:25.659Z,21.05
2023-04-06T18:02:52.236Z,21.68
2023-04-06T18:05:19.611Z,21.63
2023-04-06T18:07:46.144Z,21.26
2023-04-06T18:10:12.870Z,21.24
2023-04-06T18:12:39.304Z,21.53
2023-04-06T18:15:06.561Z,21.63
2023-04-06T18:17:33.019Z,21.65
2023-04-06T18:19:59.591Z,21.50
2023-04-06T18:22:26.026Z,21.28
2023-04-06T18:24:52.426Z,21.19
2023-04-06T18:27:21.121Z,21.19
2023-04-06T18:29:48.014Z,21.54
2023-04-06T18:32:18.195Z,21.58
2023-04-06T18:34:45.550Z,21.51
2023-04-06T18:37:12.659Z,21.33
2023-04-06T18:39:39.157Z,21.18
2023-04-06T18:42:05.844Z,21.06
2023-04-06T18:44:32.340Z,20.78
2023-04-06T18:46:59.278Z,20.60
2023-04-06T18:49:26.098Z,20.18
2023-04-06T18:51:53.650Z,20.25
2023-04-06T18:54:20.480Z,20.12
2023-04-06T18:56:47.170Z,20.20
2023-04-06T18:59:14.027Z,19.62
2023-04-06T19:01:43.684Z,19.19
2023-04-06T19:04:11.478Z,19.04
2023-04-06T19:06:38.158Z,18.96
2023-04-06T19:09:05.008Z,18.77
2023-04-06T19:11:32.298Z,18.55
2023-04-06T19:13:58.915Z,18.44
2023-04-06T19:16:27.432Z,18.37
2023-04-06T19:18:54.117Z,18.18
2023-04-06T19:21:22.463Z,18.05
2023-04-06T19:23:50.919Z,18.04
2023-04-06T19:26:18.737Z,17.91
2023-04-06T19:28:46.117Z,17.99
2023-04-06T19:31:14.479Z,18.01
2023-04-06T19:33:40.948Z,17.86
2023-04-06T19:36:08.175Z,17.86
2023-04-06T19:38:34.992Z,18.13
2023-04-06T19:41:01.623Z,18.07
2023-04-06T19:43:28.217Z,18.17
2023-04-06T19:45:54.694Z,18.10
2023-04-06T19:48:21.180Z,18.15
2023-04-06T19:50:47.776Z,18.14
2023-04-06T19:53:14.379Z,18.03
2023-04-06T19:55:40.843Z,18.25
2023-04-06T19:58:07.524Z,18.07
2023-04-06T20:00:33.908Z,18.06
2023-04-06T20:03:00.479Z,17.99
2023-04-06T20:05:27.022Z,18.03
2023-04-06T20:07:53.524Z,17.92
2023-04-06T20:10:20.064Z,17.95
2023-04-06T20:12:46.600Z,17.78
2023-04-06T20:15:13.263Z,17.80
2023-04-06T20:17:39.705Z,17.83
2023-04-06T20:20:06.957Z,17.95
2023-04-06T20:22:33.346Z,18.02
2023-04-06T20:25:00.059Z,18.06
2023-04-06T20:27:26.504Z,18.14
2023-04-06T20:29:52.932Z,18.03
2023-04-06T20:32:22.107Z,17.86
2023-04-06T20:34:48.864Z,17.83
2023-04-06T20:37:16.577Z,17.82
2023-04-06T20:39:43.236Z,17.83
2023-04-06T20:42:10.031Z,18.14
2023-04-06T20:44:36.606Z,17.85
2023-04-06T20:47:04.161Z,17.83
2023-04-06T20:49:30.607Z,17.70
2023-04-06T20:51:57.191Z,17.80
2023-04-06T20:54:23.695Z,17.93
2023-04-06T20:56:50.158Z,17.74
2023-04-06T20:59:16.545Z,17.51
2023-04-06T21:01:43.250Z,17.70
2023-04-06T21:04:09.827Z,17.51
2023-04-06T21:06:36.607Z,17.53
2023-04-06T21:09:03.366Z,17.70
2023-04-06T21:11:30.073Z,17.61
2023-04-06T21:13:56.550Z,16.66
2023-04-06T21:16:23.144Z,17.07
2023-04-06T21:18:49.631Z,17.23
2023-04-06T21:21:23.280Z,15.73
2023-04-06T21:23:53.017Z,16.67
2023-04-06T21:26:19.375Z,16.95
2023-04-06T21:28:46.838Z,17.06
2023-04-06T21:31:16.353Z,16.96
2023-04-06T21:33:42.814Z,16.95
2023-04-06T21:36:09.375Z,17.03
2023-04-06T21:38:35.785Z,16.87
2023-04-06T21:41:02.283Z,16.80
2023-04-06T21:43:28.749Z,16.79
2023-04-06T21:45:55.199Z,16.66
2023-04-06T21:48:21.712Z,16.46
2023-04-06T21:50:48.097Z,16.32
2023-04-06T21:53:14.492Z,16.44
2023-04-06T21:55:47.513Z,16.22
2023-04-06T21:58:14.588Z,16.28
2023-04-06T22:00:41.100Z,16.25
2023-04-06T22:03:07.979Z,16.15
2023-04-06T22:05:37.142Z,16.25
2023-04-06T22:08:03.676Z,16.15
2023-04-06T22:10:30.434Z,16.37
2023-04-06T22:12:57.179Z,16.65
2023-04-06T22:15:23.581Z,16.53
2023-04-06T22:17:50.120Z,16.60
2023-04-06T22:20:17.223Z,16.50
2023-04-06T22:22:43.792Z,16.61
2023-04-06T22:25:10.419Z,16.56
2023-04-06T22:27:36.850Z,16.58
2023-04-06T22:30:04.429Z,16.64
2023-04-06T22:32:30.921Z,16.25
2023-04-06T22:34:57.338Z,16.65
2023-04-06T22:37:23.882Z,16.30
2023-04-06T22:39:50.313Z,16.43
2023-04-06T22:42:16.696Z,16.39
2023-04-06T22:44:43.196Z,16.45
2023-04-06T22:47:09.789Z,16.26
2023-04-06T22:49:36.210Z,16.33
2023-04-06T22:52:02.883Z,16.39
2023-04-06T22:54:29.346Z,16.38
2023-04-06T22:56:56.634Z,16.46
2023-04-06T22:59:23.389Z,16.45
2023-04-06T23:01:49.931Z,16.35
2023-04-06T23:04:16.974Z,16.11
2023-04-06T23:06:44.267Z,16.27
2023-04-06T23:09:10.729Z,16.20
2023-04-06T23:11:37.090Z,16.25
2023-04-06T23:14:03.502Z,16.28
2023-04-06T23:16:29.905Z,15.81
2023-04-06T23:18:56.655Z,15.79
2023-04-06T23:21:23.076Z,15.68
2023-04-06T23:23:49.488Z,15.84
2023-04-06T23:26:16.175Z,15.85
2023-04-06T23:28:42.599Z,15.82
2023-04-06T23:31:09.113Z,15.71
2023-04-06T23:33:35.683Z,15.60
2023-04-06T23:36:02.110Z,15.45
2023-04-06T23:38:28.603Z,15.74
2023-04-06T23:40:55.053Z,15.51
2023-04-06T23:43:21.472Z,15.72
2023-04-06T23:45:47.947Z,15.66
2023-04-06T23:48:14.328Z,15.88
2023-04-06T23:50:41.401Z,15.90
2023-04-06T23:53:07.865Z,16.08
2023-04-06T23:55:34.347Z,15.84
2023-04-06T23:58:01.829Z,15.82
